createdAt,value
2022-11-26T00:01:16.521Z,20.15
2022-11-26T00:03:44.929Z,20.16
2022-11-26T00:06:26.824Z,20.16
2022-11-26T00:08:54.694Z,20.16
2022-11-26T00:11:22.774Z,20.12
2022-11-26T00:13:51.986Z,20.15
2022-11-26T00:16:19.897Z,20.16
2022-11-26T00:18:47.813Z,20.17
2022-11-26T00:21:22.045Z,20.17
2022-11-26T00:23:50.494Z,20.16
2022-11-26T00:26:21.238Z,20.15
2022-11-26T00:28:54.273Z,20.17
2022-11-26T00:31:22.624Z,20.16
2022-11-26T00:33:50.492Z,20.17
2022-11-26T00:36:22.039Z,20.16
2022-11-26T00:38:54.946Z,20.17
2022-11-26T00:41:25.151Z,20.17
2022-11-26T00:43:54.374Z,20.15
2022-11-26T00:46:23.349Z,20.16
2022-11-26T00:48:52.035Z,20.16
2022-11-26T00:51:22.911Z,20.16
2022-11-26T00:53:51.903Z,20.16
2022-11-26T00:56:21.509Z,20.16
2022-11-26T00:58:51.107Z,20.15
2022-11-26T01:01:22.648Z,20.16
2022-11-26T01:03:50.964Z,20.15
2022-11-26T01:06:21.325Z,20.17
2022-11-26T01:08:49.849Z,20.03
2022-11-26T01:11:20.395Z,20.16
2022-11-26T01:13:50.043Z,20.16
2022-11-26T01:16:23.809Z,20.16
2022-11-26T01:18:53.615Z,20.16
2022-11-26T01:21:22.840Z,20.17
2022-11-26T01:23:50.869Z,20.16
2022-11-26T01:26:22.696Z,20.16
2022-11-26T01:28:51.315Z,20.17
2022-11-26T01:31:23.471Z,20.14
2022-11-26T01:33:51.974Z,20.15
2022-11-26T01:36:23.855Z,20.18
2022-11-26T01:38:53.354Z,20.16
2022-11-26T01:41:30.738Z,20.18
2022-11-26T01:43:59.824Z,20.17
2022-11-26T01:46:32.028Z,20.18
2022-11-26T01:49:22.588Z,20.18
2022-11-26T01:51:54.637Z,20.17
2022-11-26T01:54:22.766Z,20.17
2022-11-26T01:56:53.583Z,20.16
2022-11-26T01:59:25.758Z,20.17
2022-11-26T02:01:58.722Z,20.17
2022-11-26T02:04:29.547Z,20.17
2022-11-26T02:06:58.634Z,20.16
2022-11-26T02:09:29.035Z,20.16
2022-11-26T02:11:57.554Z,20.17
2022-11-26T02:14:28.006Z,20.17
2022-11-26T02:17:14.638Z,20.18
2022-11-26T02:20:14.999Z,20.17
2022-11-26T02:23:18.104Z,20.16
2022-11-26T02:26:18.339Z,20.15
2022-11-26T02:29:04.224Z,20.16
2022-11-26T02:31:38.468Z,20.15
2022-11-26T02:34:14.811Z,20.18
2022-11-26T02:36:50.680Z,20.17
2022-11-26T02:39:21.548Z,20.16
2022-11-26T02:41:52.313Z,20.15
2022-11-26T02:44:24.264Z,20.16
2022-11-26T02:46:58.655Z,20.17
2022-11-26T02:49:28.496Z,20.16
2022-11-26T02:52:01.107Z,20.17
2022-11-26T02:54:29.989Z,20.17
2022-11-26T02:56:59.290Z,20.18
2022-11-26T02:59:27.415Z,20.17
2022-11-26T03:02:00.517Z,20.18
2022-11-26T03:04:34.023Z,20.19
2022-11-26T03:07:04.463Z,20.19
2022-11-26T03:09:41.569Z,20.19
2022-11-26T03:12:10.141Z,20.17
2022-11-26T03:14:38.412Z,20.17
2022-11-26T03:17:07.947Z,20.19
2022-11-26T03:19:35.778Z,20.19
2022-11-26T03:22:03.661Z,20.20
2022-11-26T03:24:31.659Z,20.19
2022-11-26T03:26:59.775Z,20.20
2022-11-26T03:29:27.903Z,20.19
2022-11-26T03:31:55.871Z,20.19
2022-11-26T03:34:25.470Z,20.19
2022-11-26T03:36:53.684Z,20.19
2022-11-26T03:39:21.695Z,20.19
2022-11-26T03:41:49.563Z,20.18
2022-11-26T03:44:17.428Z,20.19
2022-11-26T03:46:45.295Z,20.21
2022-11-26T03:49:13.356Z,20.18
2022-11-26T03:51:42.693Z,20.20
2022-11-26T03:54:10.900Z,20.19
2022-11-26T03:56:38.736Z,20.19
2022-11-26T03:59:07.215Z,20.17
2022-11-26T04:01:35.433Z,20.20
2022-11-26T04:04:03.587Z,20.19
2022-11-26T04:06:31.484Z,20.20
2022-11-26T04:09:00.755Z,20.20
2022-11-26T04:11:28.615Z,20.20
2022-11-26T04:13:56.565Z,20.19
2022-11-26T04:16:24.534Z,20.20
2022-11-26T04:18:52.503Z,20.20
2022-11-26T04:21:20.411Z,20.21
2022-11-26T04:23:48.315Z,20.21
2022-11-26T04:26:17.748Z,20.21
2022-11-26T04:28:45.744Z,20.21
2022-11-26T04:31:13.792Z,20.22
2022-11-26T04:33:41.699Z,20.21
2022-11-26T04:36:10.351Z,20.21
2022-11-26T04:38:38.571Z,20.21
2022-11-26T04:41:06.704Z,20.21
2022-11-26T04:43:36.114Z,20.21
2022-11-26T04:46:04.006Z,20.21
2022-11-26T04:48:31.918Z,20.21
2022-11-26T04:50:59.755Z,20.20
2022-11-26T04:53:27.624Z,20.21
2022-11-26T04:55:55.491Z,20.22
2022-11-26T04:58:23.411Z,20.21
2022-11-26T05:00:53.078Z,20.22
2022-11-26T05:03:21.077Z,20.21
2022-11-26T05:05:49.053Z,20.21
2022-11-26T05:08:16.921Z,20.20
2022-11-26T05:10:44.796Z,20.21
2022-11-26T05:13:12.648Z,20.21
2022-11-26T05:15:40.502Z,20.22
2022-11-26T05:18:09.929Z,20.23
2022-11-26T05:20:37.797Z,20.23
2022-11-26T05:23:05.689Z,20.23
2022-11-26T05:25:33.546Z,20.20
2022-11-26T05:28:01.444Z,20.22
2022-11-26T05:30:29.397Z,20.22
2022-11-26T05:32:57.261Z,20.24
2022-11-26T05:35:26.519Z,20.20
2022-11-26T05:37:56.711Z,20.23
2022-11-26T05:40:24.585Z,20.22
2022-11-26T05:42:52.461Z,20.22
2022-11-26T05:45:20.318Z,20.22
2022-11-26T05:47:48.415Z,20.22
2022-11-26T05:50:16.223Z,20.23
2022-11-26T05:52:45.435Z,20.21
2022-11-26T05:55:13.304Z,20.23
2022-11-26T05:57:41.175Z,20.23
2022-11-26T06:00:11.090Z,20.23
2022-11-26T06:02:39.340Z,20.23
2022-11-26T06:05:08.195Z,20.23
2022-11-26T06:07:39.356Z,20.24
2022-11-26T06:10:12.297Z,20.24
2022-11-26T06:12:40.171Z,20.24
2022-11-26T06:15:08.852Z,20.24
2022-11-26T06:17:36.806Z,20.25
2022-11-26T06:20:05.419Z,20.24
2022-11-26T06:22:37.820Z,20.18
2022-11-26T06:25:06.359Z,20.24
2022-11-26T06:27:35.690Z,20.09
2022-11-26T06:30:04.721Z,20.20
2022-11-26T06:32:33.111Z,20.06
2022-11-26T06:35:01.018Z,20.24
2022-11-26T06:37:28.979Z,20.21
2022-11-26T06:39:56.879Z,20.24
2022-11-26T06:42:24.763Z,20.23
2022-11-26T06:44:59.464Z,20.23
2022-11-26T06:47:28.130Z,20.24
2022-11-26T06:49:56.005Z,20.23
2022-11-26T06:52:23.870Z,20.23
2022-11-26T06:54:51.797Z,20.22
2022-11-26T06:57:19.668Z,20.23
2022-11-26T06:59:47.492Z,20.23
2022-11-26T07:02:16.803Z,20.23
2022-11-26T07:04:44.722Z,20.24
2022-11-26T07:07:12.646Z,20.23
2022-11-26T07:09:40.618Z,20.24
2022-11-26T07:12:08.738Z,20.24
2022-11-26T07:14:36.974Z,20.24
2022-11-26T07:17:05.164Z,20.25
2022-11-26T07:19:34.527Z,20.25
2022-11-26T07:22:02.475Z,20.24
2022-11-26T07:24:30.509Z,20.24
2022-11-26T07:26:58.580Z,20.25
2022-11-26T07:29:26.617Z,20.24
2022-11-26T07:31:54.538Z,20.25
2022-11-26T07:34:22.635Z,20.25
2022-11-26T07:36:56.670Z,20.25
2022-11-26T07:39:25.846Z,20.25
2022-11-26T07:41:53.767Z,20.25
2022-11-26T07:44:21.683Z,20.23
2022-11-26T07:46:49.626Z,20.24
2022-11-26T07:49:17.558Z,20.22
2022-11-26T07:51:45.591Z,20.21
2022-11-26T07:54:14.986Z,20.22
2022-11-26T07:56:42.962Z,20.21
2022-11-26T07:59:12.117Z,20.20
2022-11-26T08:01:40.179Z,20.20
2022-11-26T08:04:08.251Z,20.19
2022-11-26T08:06:36.154Z,20.19
2022-11-26T08:09:05.422Z,20.20
2022-11-26T08:11:35.444Z,20.19
2022-11-26T08:14:05.314Z,20.20
2022-11-26T08:16:33.586Z,20.20
2022-11-26T08:19:03.661Z,20.20
2022-11-26T08:21:31.559Z,20.19
2022-11-26T08:23:59.834Z,20.20
2022-11-26T08:26:35.039Z,20.20
2022-11-26T08:29:06.805Z,20.19
2022-11-26T08:31:35.045Z,20.18
2022-11-26T08:34:04.236Z,20.19
2022-11-26T08:36:32.529Z,20.19
2022-11-26T08:39:01.382Z,20.19
2022-11-26T08:41:29.372Z,20.19
2022-11-26T08:44:06.546Z,20.19
2022-11-26T08:46:37.084Z,20.19
2022-11-26T08:49:05.180Z,20.20
2022-11-26T08:51:33.215Z,20.19
2022-11-26T08:54:01.084Z,20.21
2022-11-26T08:56:29.031Z,20.21
2022-11-26T08:58:57.044Z,20.22
2022-11-26T09:01:26.880Z,20.22
2022-11-26T09:03:58.138Z,20.22
2022-11-26T09:06:28.108Z,20.21
2022-11-26T09:09:15.294Z,20.02
2022-11-26T09:11:45.874Z,20.21
2022-11-26T09:14:15.178Z,20.23
2022-11-26T09:16:43.108Z,20.22
2022-11-26T09:19:14.173Z,20.24
2022-11-26T09:21:42.107Z,20.25
2022-11-26T09:24:10.154Z,20.24
2022-11-26T09:26:38.101Z,20.24
2022-11-26T09:29:06.425Z,20.24
2022-11-26T09:31:34.572Z,20.26
2022-11-26T09:34:03.661Z,20.27
2022-11-26T09:36:33.112Z,20.27
2022-11-26T09:39:01.521Z,20.27
2022-11-26T09:41:42.196Z,20.28
2022-11-26T09:44:22.956Z,20.28
2022-11-26T09:47:11.911Z,20.26
2022-11-26T09:49:55.755Z,20.26
2022-11-26T09:52:28.024Z,20.24
2022-11-26T09:55:05.717Z,20.25
2022-11-26T09:57:41.190Z,20.24
2022-11-26T10:00:22.436Z,20.25
2022-11-26T10:02:53.439Z,20.25
2022-11-26T10:05:23.510Z,20.25
2022-11-26T10:08:07.153Z,20.25
2022-11-26T10:10:42.893Z,20.25
2022-11-26T10:13:23.081Z,20.25
2022-11-26T10:16:01.176Z,20.25
2022-11-26T10:18:41.469Z,20.25
2022-11-26T10:21:32.592Z,20.25
2022-11-26T10:24:20.696Z,20.24
2022-11-26T10:26:50.245Z,20.25
2022-11-26T10:29:23.474Z,20.24
2022-11-26T10:31:56.305Z,20.26
2022-11-26T10:34:33.382Z,20.27
2022-11-26T10:37:03.925Z,20.26
2022-11-26T10:39:33.280Z,20.25
2022-11-26T10:42:05.477Z,20.28
2022-11-26T10:44:37.373Z,20.28
2022-11-26T10:47:27.547Z,20.28
2022-11-26T10:49:57.012Z,20.27
2022-11-26T10:52:28.495Z,20.27
2022-11-26T10:55:20.930Z,20.27
2022-11-26T10:57:54.260Z,20.26
2022-11-26T11:00:37.699Z,20.26
2022-11-26T11:03:07.784Z,20.26
2022-11-26T11:05:35.969Z,20.26
2022-11-26T11:08:04.199Z,20.11
2022-11-26T11:10:34.554Z,20.25
2022-11-26T11:13:10.336Z,20.26
2022-11-26T11:15:40.471Z,20.23
2022-11-26T11:18:18.806Z,20.20
2022-11-26T11:20:55.059Z,20.27
2022-11-26T11:23:39.952Z,20.26
2022-11-26T11:26:19.359Z,20.27
2022-11-26T11:28:50.073Z,20.24
2022-11-26T11:31:21.248Z,20.27
2022-11-26T11:33:50.200Z,20.26
2022-11-26T11:36:28.581Z,20.26
2022-11-26T11:38:58.518Z,20.26
2022-11-26T11:41:34.459Z,20.27
2022-11-26T11:44:07.649Z,20.28
2022-11-26T11:47:13.000Z,20.28
2022-11-26T11:49:51.991Z,20.25
2022-11-26T11:52:31.904Z,20.27
2022-11-26T11:55:07.257Z,20.28
2022-11-26T11:58:05.918Z,20.28
2022-11-26T12:00:42.350Z,20.25
2022-11-26T12:03:44.732Z,20.24
2022-11-26T12:06:22.358Z,20.26
2022-11-26T12:09:01.805Z,20.27
2022-11-26T12:11:43.355Z,20.28
2022-11-26T12:14:22.157Z,20.28
2022-11-26T12:16:55.017Z,20.27
2022-11-26T12:19:29.999Z,20.28
2022-11-26T12:22:03.061Z,20.27
2022-11-26T12:24:40.682Z,20.27
2022-11-26T12:27:17.734Z,20.28
2022-11-26T12:29:53.249Z,20.27
2022-11-26T12:32:26.854Z,20.28
2022-11-26T12:34:59.852Z,20.09
2022-11-26T12:37:31.683Z,20.27
2022-11-26T12:40:05.177Z,20.29
2022-11-26T12:42:42.034Z,20.28
2022-11-26T12:45:21.262Z,20.28
2022-11-26T12:47:55.836Z,20.28
2022-11-26T12:50:35.094Z,20.28
2022-11-26T12:53:29.403Z,20.28
2022-11-26T12:56:05.715Z,20.29
2022-11-26T12:58:42.199Z,20.28
2022-11-26T13:01:12.332Z,20.28
2022-11-26T13:03:41.615Z,20.28
2022-11-26T13:06:22.455Z,20.26
2022-11-26T13:08:56.027Z,20.30
2022-11-26T13:11:33.474Z,20.29
2022-11-26T13:14:09.144Z,20.27
2022-11-26T13:16:45.681Z,20.29
2022-11-26T13:19:19.938Z,20.30
2022-11-26T13:22:04.665Z,20.31
2022-11-26T13:24:51.773Z,20.31
2022-11-26T13:27:33.053Z,20.28
2022-11-26T13:30:10.679Z,20.30
2022-11-26T13:33:11.789Z,20.29
2022-11-26T13:36:07.071Z,20.29
2022-11-26T13:38:50.068Z,20.29
2022-11-26T13:41:43.599Z,20.27
2022-11-26T13:44:44.206Z,20.28
2022-11-26T13:47:17.005Z,20.28
2022-11-26T13:49:51.328Z,20.26
2022-11-26T13:52:24.577Z,20.29
2022-11-26T13:54:58.420Z,20.28
2022-11-26T13:57:31.530Z,20.28
2022-11-26T14:00:00.464Z,20.26
2022-11-26T14:02:47.460Z,20.30
2022-11-26T14:05:16.951Z,20.29
2022-11-26T14:07:46.882Z,20.28
2022-11-26T14:10:43.526Z,20.29
2022-11-26T14:13:13.557Z,20.08
2022-11-26T14:16:03.568Z,20.07
2022-11-26T14:19:00.669Z,20.29
2022-11-26T14:21:30.715Z,20.29
2022-11-26T14:24:01.518Z,20.30
2022-11-26T14:26:34.295Z,20.30
2022-11-26T14:29:12.488Z,20.30
2022-11-26T14:31:43.236Z,20.11
2022-11-26T14:34:15.971Z,20.31
2022-11-26T14:36:56.289Z,20.32
2022-11-26T14:39:26.623Z,20.30
2022-11-26T14:42:01.881Z,20.31
2022-11-26T14:44:33.950Z,20.32
2022-11-26T14:47:10.979Z,20.32
2022-11-26T14:49:42.555Z,20.29
2022-11-26T14:52:19.933Z,20.22
2022-11-26T14:54:53.399Z,20.32
2022-11-26T14:57:28.152Z,20.32
2022-11-26T14:59:57.939Z,20.32
2022-11-26T15:02:28.134Z,20.32
2022-11-26T15:05:01.514Z,20.33
2022-11-26T15:07:30.836Z,20.33
2022-11-26T15:10:05.927Z,20.33
2022-11-26T15:12:36.239Z,20.33
2022-11-26T15:15:05.629Z,20.33
2022-11-26T15:17:35.419Z,20.33
2022-11-26T15:20:07.597Z,20.34
2022-11-26T15:22:39.291Z,20.29
2022-11-26T15:25:18.387Z,20.34
2022-11-26T15:27:54.590Z,20.33
2022-11-26T15:30:24.552Z,20.33
2022-11-26T15:32:58.817Z,20.33
2022-11-26T15:35:26.856Z,20.33
2022-11-26T15:37:54.809Z,20.34
2022-11-26T15:40:26.380Z,20.33
2022-11-26T15:42:58.597Z,20.34
2022-11-26T15:45:36.223Z,20.34
2022-11-26T15:48:05.320Z,20.34
2022-11-26T15:50:35.107Z,20.32
2022-11-26T15:53:07.784Z,20.31
2022-11-26T15:55:38.887Z,20.33
2022-11-26T15:58:16.237Z,20.33
2022-11-26T16:00:44.211Z,20.33
2022-11-26T16:03:34.173Z,20.33
2022-11-26T16:06:03.079Z,20.33
2022-11-26T16:08:32.223Z,20.33
2022-11-26T16:11:09.995Z,20.33
2022-11-26T16:13:37.880Z,20.33
2022-11-26T16:16:09.707Z,20.34
2022-11-26T16:18:41.044Z,20.34
2022-11-26T16:21:17.022Z,20.34
2022-11-26T16:23:45.191Z,20.33
2022-11-26T16:26:17.802Z,20.34
2022-11-26T16:28:46.234Z,20.31
2022-11-26T16:31:14.844Z,20.33
2022-11-26T16:33:43.613Z,20.33
2022-11-26T16:36:23.394Z,20.33
2022-11-26T16:38:51.836Z,20.34
2022-11-26T16:41:22.706Z,20.34
2022-11-26T16:43:51.244Z,20.35
2022-11-26T16:46:21.023Z,20.32
2022-11-26T16:48:49.423Z,20.34
2022-11-26T16:51:17.657Z,20.34
2022-11-26T16:53:45.725Z,20.31
2022-11-26T16:56:23.306Z,20.32
2022-11-26T16:58:52.138Z,20.15
2022-11-26T17:01:20.283Z,20.26
2022-11-26T17:03:48.273Z,20.34
2022-11-26T17:06:22.157Z,20.34
2022-11-26T17:08:50.278Z,20.33
2022-11-26T17:11:18.787Z,20.34
2022-11-26T17:13:48.211Z,20.35
2022-11-26T17:16:19.961Z,20.35
2022-11-26T17:18:50.015Z,20.34
2022-11-26T17:21:18.023Z,20.34
2022-11-26T17:23:45.956Z,20.32
2022-11-26T17:26:20.133Z,20.33
2022-11-26T17:28:50.463Z,20.35
2022-11-26T17:31:18.957Z,20.35
2022-11-26T17:33:46.907Z,20.35
2022-11-26T17:36:17.590Z,20.35
2022-11-26T17:38:46.214Z,20.36
2022-11-26T17:41:14.717Z,20.35
2022-11-26T17:43:43.181Z,20.36
2022-11-26T17:46:21.917Z,20.31
2022-11-26T17:48:55.548Z,20.34
2022-11-26T17:51:26.943Z,20.35
2022-11-26T17:53:54.845Z,20.35
2022-11-26T17:56:25.078Z,20.35
2022-11-26T17:58:52.939Z,20.35
2022-11-26T18:01:22.529Z,20.33
2022-11-26T18:03:52.388Z,20.36
2022-11-26T18:06:27.436Z,20.35
2022-11-26T18:08:55.291Z,20.35
2022-11-26T18:11:43.788Z,20.35
2022-11-26T18:14:11.767Z,20.31
2022-11-26T18:16:41.320Z,20.35
2022-11-26T18:19:10.935Z,20.34
2022-11-26T18:21:39.602Z,20.33
2022-11-26T18:24:09.990Z,20.35
2022-11-26T18:26:38.422Z,20.35
2022-11-26T18:29:06.375Z,20.36
2022-11-26T18:31:39.509Z,20.35
2022-11-26T18:34:09.635Z,20.36
2022-11-26T18:36:37.522Z,20.36
2022-11-26T18:39:06.155Z,20.37
2022-11-26T18:41:34.354Z,20.37
2022-11-26T18:44:04.025Z,20.37
2022-11-26T18:46:32.854Z,20.37
2022-11-26T18:49:01.105Z,20.38
2022-11-26T18:51:30.701Z,20.38
2022-11-26T18:53:58.645Z,20.37
2022-11-26T18:56:26.576Z,20.37
2022-11-26T18:58:54.967Z,20.34
2022-11-26T19:01:24.865Z,20.37
2022-11-26T19:03:53.527Z,20.37
2022-11-26T19:06:24.576Z,20.35
2022-11-26T19:08:58.863Z,20.36
2022-11-26T19:11:27.842Z,20.36
2022-11-26T19:13:57.505Z,20.17
2022-11-26T19:16:26.542Z,20.34
2022-11-26T19:18:54.894Z,20.38
2022-11-26T19:21:25.549Z,20.37
2022-11-26T19:23:56.580Z,20.37
2022-11-26T19:26:24.915Z,20.38
2022-11-26T19:28:53.331Z,20.38
2022-11-26T19:31:23.876Z,20.18
2022-11-26T19:33:55.266Z,20.38
2022-11-26T19:36:23.563Z,20.38
2022-11-26T19:38:57.207Z,20.39
2022-11-26T19:41:26.189Z,20.39
2022-11-26T19:43:54.536Z,20.38
2022-11-26T19:46:24.777Z,20.36
2022-11-26T19:48:55.585Z,20.38
2022-11-26T19:51:26.368Z,20.37
2022-11-26T19:53:57.226Z,20.36
2022-11-26T19:56:27.522Z,20.38
2022-11-26T19:58:57.897Z,20.38
2022-11-26T20:01:27.510Z,20.38
2022-11-26T20:03:55.571Z,20.38
2022-11-26T20:06:27.018Z,20.37
2022-11-26T20:08:58.151Z,20.23
2022-11-26T20:11:26.861Z,20.38
2022-11-26T20:13:56.157Z,20.36
2022-11-26T20:16:26.993Z,20.38
2022-11-26T20:18:55.603Z,20.36
2022-11-26T20:21:25.725Z,20.38
2022-11-26T20:23:56.480Z,20.41
2022-11-26T20:26:27.983Z,20.19
2022-11-26T20:28:56.922Z,20.40
2022-11-26T20:31:24.895Z,20.39
2022-11-26T20:33:53.251Z,20.37
2022-11-26T20:36:22.950Z,20.39
2022-11-26T20:38:53.474Z,20.38
2022-11-26T20:41:21.631Z,20.41
2022-11-26T20:43:56.769Z,20.42
2022-11-26T20:46:27.339Z,20.42
2022-11-26T20:48:55.418Z,20.44
2022-11-26T20:51:23.847Z,20.45
2022-11-26T20:53:53.031Z,20.39
2022-11-26T20:56:23.560Z,20.44
2022-11-26T20:58:53.734Z,20.43
2022-11-26T21:01:23.413Z,20.43
2022-11-26T21:03:52.007Z,20.42
2022-11-26T21:06:28.950Z,20.41
2022-11-26T21:08:57.670Z,20.41
2022-11-26T21:11:25.612Z,20.41
2022-11-26T21:13:55.620Z,20.41
2022-11-26T21:16:23.681Z,20.41
2022-11-26T21:18:53.720Z,20.38
2022-11-26T21:21:22.494Z,20.41
2022-11-26T21:23:50.706Z,20.41
2022-11-26T21:26:21.376Z,20.40
2022-11-26T21:28:51.828Z,20.41
2022-11-26T21:31:21.986Z,20.41
2022-11-26T21:33:56.030Z,20.41
2022-11-26T21:36:24.963Z,20.41
2022-11-26T21:38:52.989Z,20.41
2022-11-26T21:41:22.190Z,20.40
2022-11-26T21:43:50.979Z,20.41
2022-11-26T21:46:22.354Z,20.40
2022-11-26T21:48:52.915Z,20.41
2022-11-26T21:51:21.671Z,20.40
2022-11-26T21:53:50.952Z,20.41
2022-11-26T21:56:21.209Z,20.41
2022-11-26T21:58:49.926Z,20.41
2022-11-26T22:01:21.380Z,20.41
2022-11-26T22:03:51.147Z,20.40
2022-11-26T22:06:20.726Z,20.41
2022-11-26T22:08:49.157Z,20.39
2022-11-26T22:11:18.763Z,20.39
2022-11-26T22:13:47.163Z,20.39
2022-11-26T22:16:16.855Z,20.39
2022-11-26T22:18:47.128Z,20.39
2022-11-26T22:21:17.192Z,20.22
2022-11-26T22:23:45.185Z,20.39
2022-11-26T22:26:13.373Z,20.39
2022-11-26T22:28:41.621Z,20.19
2022-11-26T22:31:11.672Z,20.37
2022-11-26T22:33:40.078Z,20.40
2022-11-26T22:36:10.401Z,20.40
2022-11-26T22:38:39.358Z,20.39
2022-11-26T22:41:09.357Z,20.40
2022-11-26T22:43:37.936Z,20.19
2022-11-26T22:46:06.819Z,20.40
2022-11-26T22:48:35.680Z,20.41
2022-11-26T22:51:04.306Z,20.41
2022-11-26T22:53:34.584Z,20.40
2022-11-26T22:56:03.997Z,20.40
2022-11-26T22:58:33.922Z,20.38
2022-11-26T23:01:03.504Z,20.41
2022-11-26T23:03:33.921Z,20.39
2022-11-26T23:06:04.371Z,20.40
2022-11-26T23:08:34.600Z,20.19
2022-11-26T23:11:06.597Z,20.40
2022-11-26T23:13:34.639Z,20.40
2022-11-26T23:16:02.882Z,20.41
2022-11-26T23:18:30.875Z,20.39
2022-11-26T23:21:06.848Z,20.41
2022-11-26T23:23:37.711Z,20.41
2022-11-26T23:26:07.081Z,20.42
2022-11-26T23:28:36.646Z,20.42
2022-11-26T23:31:07.563Z,20.42
2022-11-26T23:33:36.716Z,20.41
2022-11-26T23:36:04.954Z,20.40
2022-11-26T23:38:33.106Z,20.42
2022-11-26T23:41:04.736Z,20.41
2022-11-26T23:43:34.535Z,20.41
2022-11-26T23:46:03.143Z,20.42
2022-11-26T23:48:31.385Z,20.40
2022-11-26T23:50:59.447Z,20.41
2022-11-26T23:53:27.683Z,20.41
2022-11-26T23:55:55.607Z,20.40
2022-11-26T23:58:24.958Z,20.41
